Time;durP1;ratioP1;P1;durP2;ratioP2;P2;SDS_P1;SDS_P2;PMS_P1;PMS_P2;Temp;Humidity;BMP_temperature;BMP_pressure;BME280_temperature;BME280_humidity;BME280_pressure;Samples;Min_cycle;Max_cycle;Signal;HPM_P1;HPM_P2
2022/12/05 00:00:59;;;;;;;;;9.00;8.25;;;;;5.41;66.03;100116.72;5057493;28;45457;-68
2022/12/05 00:03:25;;;;;;;;;13.25;11.50;;;;;5.45;66.42;100107.41;5057740;28;45468;-69
2022/12/05 00:05:51;;;;;;;;;13.75;11.75;;;;;5.33;65.92;100074.97;5055406;28;45321;-79
2022/12/05 00:08:17;;;;;;;;;14.75;12.25;;;;;5.51;66.37;100102.47;5057297;28;46310;-68
2022/12/05 00:10:42;;;;;;;;;14.00;10.00;;;;;5.32;66.97;100091.31;5057349;28;45548;-77
2022/12/05 00:13:08;;;;;;;;;16.00;12.00;;;;;5.42;66.72;100094.31;5056344;28;45352;-68
2022/12/05 00:15:38;;;;;;;;;14.75;11.75;;;;;5.36;66.91;100074.22;5056419;28;45269;-76
2022/12/05 00:18:05;;;;;;;;;10.50;8.25;;;;;5.61;65.95;100086.53;5055962;28;46065;-76
2022/12/05 00:20:31;;;;;;;;;11.75;8.50;;;;;5.66;65.97;100079.81;5056186;28;45514;-74
2022/12/05 00:22:56;;;;;;;;;12.50;10.00;;;;;5.70;66.17;100084.31;5056138;28;45378;-71
2022/12/05 00:25:22;;;;;;;;;9.50;6.25;;;;;5.74;65.81;100085.31;5054983;28;45565;-74
2022/12/05 00:27:47;;;;;;;;;10.25;9.00;;;;;5.80;65.93;100087.28;5053166;28;46316;-75
2022/12/05 00:30:13;;;;;;;;;12.00;9.75;;;;;5.53;65.72;100039.56;5056060;28;45416;-75
2022/12/05 00:32:38;;;;;;;;;10.50;9.25;;;;;5.79;66.02;100081.22;5056162;28;45410;-76
2022/12/05 00:35:04;;;;;;;;;10.00;7.75;;;;;5.75;65.91;100082.81;5056015;28;45463;-76
2022/12/05 00:37:30;;;;;;;;;8.00;7.00;;;;;5.70;65.78;100086.03;5055970;28;45460;-76
2022/12/05 00:39:55;;;;;;;;;12.00;10.00;;;;;5.65;66.02;100085.84;5056041;28;45614;-77
2022/12/05 00:42:21;;;;;;;;;7.50;7.00;;;;;5.63;66.18;100089.16;5056344;28;45900;-74
2022/12/05 00:44:49;;;;;;;;;13.25;9.50;;;;;5.63;66.42;100096.94;5056510;28;45578;-69
2022/12/05 00:47:15;;;;;;;;;13.25;10.75;;;;;5.63;65.77;100096.94;5055609;28;46218;-68
2022/12/05 00:49:40;;;;;;;;;10.00;8.25;;;;;5.63;66.26;100086.56;5055787;28;45527;-77
2022/12/05 00:52:06;;;;;;;;;8.25;8.25;;;;;5.61;66.31;100077.84;5055898;28;45601;-68
2022/12/05 00:54:32;;;;;;;;;5.25;5.00;;;;;5.34;66.38;100040.47;5056186;28;45483;-74
2022/12/05 00:56:57;;;;;;;;;9.25;8.50;;;;;5.54;66.97;100081.91;5055864;28;45799;-67
2022/12/05 00:59:23;;;;;;;;;9.75;9.50;;;;;5.52;66.92;100088.72;5055796;28;45303;-72
2022/12/05 01:01:50;;;;;;;;;13.00;12.50;;;;;5.24;67.55;100042.63;5055548;28;45409;-76
2022/12/05 01:04:21;;;;;;;;;11.50;11.00;;;;;5.40;67.13;100089.06;5055875;28;45362;-69
2022/12/05 01:06:48;;;;;;;;;10.75;10.50;;;;;5.48;66.84;100092.88;5057073;28;45479;-68
2022/12/05 01:09:16;;;;;;;;;7.75;7.00;;;;;5.43;67.61;100084.03;5057275;28;45276;-68
2022/12/05 01:11:42;;;;;;;;;9.25;9.25;;;;;5.44;67.04;100085.78;5057377;28;45420;-76
2022/12/05 01:14:13;;;;;;;;;9.25;8.75;;;;;5.43;67.67;100093.50;5057204;28;45416;-68
2022/12/05 01:16:42;;;;;;;;;10.00;9.00;;;;;5.37;67.56;100091.50;5056606;28;45447;-75
2022/12/05 01:19:20;;;;;;;;;10.50;8.25;;;;;5.14;67.32;100059.47;5057018;28;45602;-68
2022/12/05 01:21:49;;;;;;;;;10.00;7.00;;;;;5.32;67.69;100093.91;5057330;28;45459;-68
2022/12/05 01:24:16;;;;;;;;;11.50;9.25;;;;;5.31;67.94;100099.94;5057236;28;45290;-68
2022/12/05 01:26:42;;;;;;;;;10.25;8.25;;;;;5.35;67.70;100107.00;5056765;28;45437;-76
2022/12/05 01:29:10;;;;;;;;;12.00;10.00;;;;;5.38;67.78;100101.94;5056962;28;45366;-68
2022/12/05 01:31:37;;;;;;;;;10.25;10.00;;;;;5.23;67.00;100077.97;5056972;28;45297;-68
2022/12/05 01:34:05;;;;;;;;;10.00;7.50;;;;;5.41;67.30;100105.50;5057095;28;45616;-77
2022/12/05 01:36:31;;;;;;;;;10.00;9.25;;;;;5.46;67.07;100106.59;5057346;28;45475;-68
2022/12/05 01:38:58;;;;;;;;;12.00;9.50;;;;;5.45;66.61;100107.41;5060599;28;45429;-68
2022/12/05 01:41:30;;;;;;;;;10.00;8.75;;;;;5.29;66.84;100079.94;5060664;28;45488;-74
2022/12/05 01:44:06;;;;;;;;;7.75;7.00;;;;;5.49;66.20;100112.78;5060851;28;45431;-68
2022/12/05 01:46:38;;;;;;;;;10.75;8.50;;;;;5.57;65.76;100116.59;5060389;28;45357;-68
2022/12/05 01:49:08;;;;;;;;;10.50;9.50;;;;;5.58;66.28;100112.28;5060486;28;45538;-68
2022/12/05 01:51:37;;;;;;;;;14.00;10.50;;;;;5.52;66.63;100107.72;5060327;28;45468;-68
2022/12/05 01:54:04;;;;;;;;;11.25;10.75;;;;;5.52;66.40;100115.50;5060275;28;45465;-68
2022/12/05 01:56:31;;;;;;;;;10.25;8.75;;;;;5.65;65.80;100119.53;5059928;28;45539;-68
2022/12/05 01:58:59;;;;;;;;;11.75;10.00;;;;;5.72;65.10;100121.53;5060664;28;45374;-68
2022/12/05 02:01:25;;;;;;;;;11.25;9.00;;;;;5.71;65.66;100111.09;5060547;28;45460;-69
2022/12/05 02:03:54;;;;;;;;;8.25;7.00;;;;;5.71;64.77;100093.88;5060221;28;45481;-75
2022/12/05 02:06:21;;;;;;;;;10.00;8.00;;;;;6.00;65.07;100135.69;5059693;28;46240;-68
2022/12/05 02:08:48;;;;;;;;;6.25;6.00;;;;;6.08;65.02;100129.13;5059779;28;45450;-68
2022/12/05 02:11:14;;;;;;;;;9.75;6.25;;;;;6.13;64.91;100119.81;5059919;28;45485;-68
2022/12/05 02:14:21;;;;;;;;;7.50;7.50;;;;;6.16;64.91;100116.47;5060107;28;45487;-68
2022/12/05 02:17:24;;;;;;;;;7.75;6.50;;;;;6.20;64.21;100114.88;5058995;28;46306;-76
2022/12/05 02:20:04;;;;;;;;;9.25;8.25;;;;;6.20;64.86;100113.16;5059812;28;45340;-68
2022/12/05 02:22:57;;;;;;;;;5.75;5.25;;;;;6.30;64.17;100119.63;5060096;28;45450;-68
2022/12/05 02:26:00;;;;;;;;;7.25;6.25;;;;;6.36;64.08;100115.53;5059927;28;45468;-71
2022/12/05 02:28:37;;;;;;;;;8.50;6.00;;;;;6.46;63.27;100119.41;5059710;28;45970;-70
2022/12/05 02:31:09;;;;;;;;;4.50;3.50;;;;;6.50;63.18;100118.69;5059533;28;45493;-68
2022/12/05 02:33:49;;;;;;;;;12.75;12.00;;;;;6.49;62.54;100116.94;5059537;28;45528;-68
2022/12/05 02:36:40;;;;;;;;;10.25;8.00;;;;;6.52;63.20;100117.03;5059688;28;45495;-76
2022/12/05 02:39:20;;;;;;;;;9.00;7.75;;;;;6.53;63.19;100121.41;5059452;28;45337;-68
2022/12/05 02:41:56;;;;;;;;;10.00;8.75;;;;;6.29;63.42;100076.34;5059406;28;45483;-68
2022/12/05 02:44:39;;;;;;;;;10.00;8.50;;;;;6.59;63.19;100132.88;5059564;28;45380;-69
2022/12/05 02:47:07;;;;;;;;;11.00;8.00;;;;;6.63;63.44;100142.56;5059255;28;45341;-69
2022/12/05 02:49:36;;;;;;;;;10.00;8.00;;;;;6.68;63.08;100133.22;5059059;28;46191;-69
2022/12/05 02:52:06;;;;;;;;;7.75;7.00;;;;;6.70;62.96;100134.16;5059516;28;45398;-69
2022/12/05 02:54:36;;;;;;;;;9.00;7.00;;;;;6.63;63.04;100122.66;5059795;28;45306;-69
2022/12/05 02:57:04;;;;;;;;;7.25;7.25;;;;;6.56;62.98;100112.88;5059848;28;45504;-69
2022/12/05 02:59:29;;;;;;;;;7.00;5.50;;;;;6.76;62.27;100135.31;5059251;28;45524;-77
2022/12/05 03:01:55;;;;;;;;;5.50;3.25;;;;;6.79;62.72;100126.75;5059011;28;45364;-69
2022/12/05 03:04:24;;;;;;;;;5.00;4.25;;;;;6.81;62.42;100127.69;5059150;28;45410;-69
2022/12/05 03:06:52;;;;;;;;;5.25;5.25;;;;;6.81;62.09;100124.22;5059352;28;45496;-69
2022/12/05 03:09:23;;;;;;;;;5.25;5.00;;;;;6.81;62.33;100132.88;5058909;28;45414;-69
2022/12/05 03:12:02;;;;;;;;;6.25;6.00;;;;;6.81;62.14;100132.88;5058860;28;45433;-74
2022/12/05 03:14:35;;;;;;;;;8.25;8.00;;;;;6.79;62.65;100126.75;5058972;28;45414;-69
2022/12/05 03:17:08;;;;;;;;;16.50;14.50;;;;;6.77;62.89;100128.41;5059339;28;45245;-76
2022/12/05 03:19:40;;;;;;;;;14.50;12.00;;;;;6.76;63.01;100129.22;5059131;28;46300;-77
2022/12/05 03:22:13;;;;;;;;;12.25;10.00;;;;;6.76;62.92;100131.81;5058732;28;45479;-69
2022/12/05 03:24:40;;;;;;;;;8.00;7.00;;;;;6.76;63.62;100126.59;5058842;28;45503;-68
2022/12/05 03:27:08;;;;;;;;;8.25;7.25;;;;;6.74;63.63;100134.38;5059100;28;45433;-69
2022/12/05 03:29:50;;;;;;;;;6.50;5.25;;;;;6.72;63.87;100137.72;5058659;28;45494;-69
2022/12/05 03:32:33;;;;;;;;;6.50;6.00;;;;;6.68;63.29;100139.28;5057323;28;45482;-69
2022/12/05 03:35:47;;;;;;;;;7.50;6.50;;;;;6.63;63.78;100142.56;5058767;28;45255;-69
2022/12/05 03:38:14;;;;;;;;;12.00;10.25;;;;;6.57;64.11;100141.47;5011619;28;45358;-69
2022/12/05 03:41:12;;;;;;;;;8.50;6.75;;;;;6.48;64.12;100133.31;5058373;28;45465;-69
2022/12/05 03:43:56;;;;;;;;;3.00;3.00;;;;;6.42;64.41;100142.56;5058068;28;45302;-69
2022/12/05 03:46:40;;;;;;;;;4.50;4.50;;;;;6.35;64.37;100138.88;5058505;28;45264;-68
2022/12/05 03:49:29;;;;;;;;;5.00;5.00;;;;;6.31;64.04;100143.03;5058930;28;45852;-69
2022/12/05 03:52:03;;;;;;;;;4.00;4.00;;;;;6.28;64.26;100153.28;5058258;28;46301;-68
2022/12/05 03:54:34;;;;;;;;;6.00;3.50;;;;;6.22;65.00;100149.56;5058155;28;45497;-69
2022/12/05 03:57:10;;;;;;;;;3.50;3.00;;;;;6.14;65.64;100155.31;5058424;28;45349;-69
2022/12/05 03:59:41;;;;;;;;;6.25;5.25;;;;;6.11;65.51;100152.59;5058201;28;45271;-68
2022/12/05 04:02:14;;;;;;;;;5.75;5.00;;;;;5.97;65.30;100131.28;5058384;28;45495;-69
2022/12/05 04:04:50;;;;;;;;;4.50;3.50;;;;;5.90;65.45;100130.91;5058095;28;45389;-69
2022/12/05 04:07:18;;;;;;;;;7.50;3.00;;;;;6.02;65.50;100154.78;5058123;28;45433;-78
2022/12/05 04:09:58;;;;;;;;;2.75;2.00;;;;;6.05;64.97;100167.00;5058325;28;45310;-70
2022/12/05 04:12:29;;;;;;;;;4.50;3.00;;;;;6.05;65.27;100167.00;5057884;28;45486;-77
2022/12/05 04:15:07;;;;;;;;;4.00;3.00;;;;;6.04;65.01;100158.34;5057787;28;45428;-69
2022/12/05 04:17:59;;;;;;;;;5.00;3.00;;;;;6.07;64.97;100160.16;5058152;28;45426;-69
2022/12/05 04:23:25;;;;;;;;;2.75;2.75;;;;;6.08;63.90;100156.75;5057775;28;45779;-76
2022/12/05 04:26:10;;;;;;;;;2.25;2.25;;;;;6.04;64.29;100155.75;5057862;28;45505;-76
2022/12/05 04:28:47;;;;;;;;;3.00;2.25;;;;;5.83;63.54;100110.72;5058191;28;45422;-69
2022/12/05 04:31:23;;;;;;;;;5.00;4.50;;;;;6.10;63.58;100163.78;5058182;28;45426;-69
2022/12/05 04:33:53;;;;;;;;;3.00;3.00;;;;;6.08;63.44;100164.53;5057649;28;45234;-68
2022/12/05 04:36:24;;;;;;;;;2.75;2.75;;;;;6.06;63.55;100168.78;5057561;28;45386;-77
2022/12/05 04:38:52;;;;;;;;;3.00;3.00;;;;;6.03;63.92;100166.94;5057756;28;45484;-75
2022/12/05 04:41:23;;;;;;;;;5.00;3.00;;;;;5.95;64.10;100150.19;5057854;28;45394;-68
2022/12/05 04:43:53;;;;;;;;;2.00;1.00;;;;;5.97;64.32;100156.31;5057489;28;45334;-72
2022/12/05 04:46:21;;;;;;;;;3.25;2.75;;;;;5.92;64.78;100168.16;5057482;28;45527;-76
2022/12/05 04:48:55;;;;;;;;;6.25;3.00;;;;;5.88;65.00;100166.25;5057533;28;45346;-68
2022/12/05 04:51:25;;;;;;;;;5.00;3.00;;;;;5.85;65.13;100171.31;5057540;28;45276;-68
2022/12/05 04:53:56;;;;;;;;;2.75;2.75;;;;;5.81;64.82;100169.41;5057362;28;45317;-75
2022/12/05 04:56:26;;;;;;;;;3.50;3.50;;;;;5.76;65.50;100171.81;5057184;28;45452;-67
2022/12/05 04:58:52;;;;;;;;;2.25;2.25;;;;;5.73;65.75;100164.78;5057492;28;45337;-76
2022/12/05 05:01:36;;;;;;;;;5.00;4.50;;;;;5.74;65.55;100168.25;5057440;28;45416;-75
2022/12/05 05:04:07;;;;;;;;;5.00;3.50;;;;;5.71;65.56;100169.03;5057399;28;45445;-67
2022/12/05 05:06:39;;;;;;;;;3.00;3.00;;;;;5.72;65.27;100168.19;5057156;28;45334;-67
2022/12/05 05:09:05;;;;;;;;;5.25;4.50;;;;;5.58;65.15;100151.16;5057105;28;45425;-68
2022/12/05 05:11:33;;;;;;;;;3.00;3.00;;;;;5.76;64.94;100177.00;5056398;28;45350;-77
2022/12/05 05:13:59;;;;;;;;;3.00;2.50;;;;;5.72;64.95;100165.59;5057069;28;45405;-68
2022/12/05 05:16:27;;;;;;;;;4.50;4.50;;;;;5.74;65.21;100166.53;5057070;28;45296;-75
2022/12/05 05:18:53;;;;;;;;;3.00;3.00;;;;;5.74;65.49;100173.44;5057358;28;45552;-77
2022/12/05 05:21:22;;;;;;;;;4.50;4.50;;;;;5.71;65.65;100171.63;5057266;28;45501;-69
2022/12/05 05:23:47;;;;;;;;;3.50;3.00;;;;;5.69;65.29;100165.47;5056934;28;46086;-68
2022/12/05 05:26:14;;;;;;;;;2.75;2.75;;;;;5.68;65.63;100176.66;5056907;28;45325;-75
2022/12/05 05:28:40;;;;;;;;;2.25;2.25;;;;;5.68;65.18;100179.25;5057210;28;45315;-76
2022/12/05 05:31:06;;;;;;;;;2.75;2.25;;;;;5.69;65.56;100181.03;5057140;28;45515;-68
2022/12/05 05:33:32;;;;;;;;;3.50;2.50;;;;;5.72;65.47;100178.56;5056899;28;45459;-68
2022/12/05 05:36:17;;;;;;;;;3.00;3.00;;;;;5.73;64.97;100177.75;5056696;28;45508;-68
2022/12/05 05:38:45;;;;;;;;;5.00;4.00;;;;;5.69;65.04;100170.66;5056846;28;45418;-69
2022/12/05 05:41:17;;;;;;;;;2.25;2.00;;;;;5.82;64.59;100173.78;5057338;28;45451;-77
2022/12/05 05:43:43;;;;;;;;;5.25;3.00;;;;;5.92;64.18;100175.94;5056605;28;45987;-68
2022/12/05 05:46:10;;;;;;;;;15.50;12.00;;;;;6.00;63.95;100182.38;5056900;28;45298;-69
2022/12/05 05:48:35;;;;;;;;;78.00;61.50;;;;;6.04;63.90;100173.00;5056953;28;45302;-76
2022/12/05 05:51:03;;;;;;;;;4.00;3.00;;;;;6.08;63.60;100180.97;5072494;28;45354;-69
2022/12/05 05:53:29;;;;;;;;;60.00;50.50;;;;;6.03;64.06;100173.81;5056237;28;45310;-68
2022/12/05 05:55:55;;;;;;;;;7.00;6.25;;;;;6.01;64.53;100180.66;5056485;28;45353;-71
2022/12/05 05:58:20;;;;;;;;;30.75;29.25;;;;;5.94;65.35;100192.44;5056895;28;45337;-68
2022/12/05 06:00:46;;;;;;;;;24.00;24.00;;;;;5.86;65.25;100194.72;5057085;28;45396;-68
2022/12/05 06:03:11;;;;;;;;;11.25;10.75;;;;;5.54;65.39;100157.03;5056664;28;46160;-68
2022/12/05 06:05:37;;;;;;;;;12.00;11.00;;;;;5.81;66.15;100203.09;5056476;28;45352;-68
2022/12/05 06:08:03;;;;;;;;;18.75;18.50;;;;;5.75;65.87;100198.56;5056729;28;45542;-68
2022/12/05 06:10:29;;;;;;;;;7.75;7.00;;;;;5.70;66.02;100197.47;5056729;28;45218;-68
2022/12/05 06:12:56;;;;;;;;;10.00;9.50;;;;;5.66;66.06;100209.38;5056162;28;45476;-69
2022/12/05 06:15:22;;;;;;;;;7.00;5.75;;;;;5.62;66.57;100211.78;5056226;28;45472;-69
2022/12/05 06:17:48;;;;;;;;;25.00;23.75;;;;;5.58;66.50;100200.41;5056280;28;45483;-69
2022/12/05 06:20:13;;;;;;;;;11.00;10.75;;;;;5.55;66.99;100203.75;5056827;28;45231;-69
2022/12/05 06:22:39;;;;;;;;;6.25;5.25;;;;;5.48;68.08;100206.88;5056827;28;45330;-68
2022/12/05 06:25:05;;;;;;;;;4.00;4.00;;;;;5.40;66.98;100191.81;5059783;28;45711;-68
2022/12/05 06:27:31;;;;;;;;;7.00;6.50;;;;;5.42;68.00;100198.81;5059592;28;45416;-68
2022/12/05 06:29:56;;;;;;;;;5.00;5.00;;;;;5.44;67.47;100215.31;5059793;28;45392;-70
2022/12/05 06:32:22;;;;;;;;;5.75;5.00;;;;;5.46;67.38;100218.88;5059430;28;45987;-69
2022/12/05 06:34:47;;;;;;;;;6.00;4.00;;;;;5.49;67.07;100220.69;5058023;28;45742;-68
2022/12/05 06:37:13;;;;;;;;;2.00;2.00;;;;;5.54;67.13;100214.03;5058336;28;45485;-67
2022/12/05 06:39:39;;;;;;;;;3.00;3.00;;;;;5.38;67.13;100184.84;5058934;28;45432;-76
2022/12/05 06:42:04;;;;;;;;;4.50;4.50;;;;;5.50;67.12;100209.53;5058303;28;46347;-67
2022/12/05 06:44:30;;;;;;;;;6.00;3.50;;;;;5.56;67.55;100221.03;5058753;28;45537;-76
2022/12/05 06:46:55;;;;;;;;;6.00;5.00;;;;;5.53;67.32;100215.75;5058754;28;45465;-75
2022/12/05 06:49:25;;;;;;;;;4.00;4.00;;;;;5.53;66.93;100220.00;5059002;28;45484;-73
2022/12/05 06:51:52;;;;;;;;;3.00;2.25;;;;;5.43;67.07;100208.38;5058320;28;45689;-75
2022/12/05 06:54:18;;;;;;;;;8.00;7.00;;;;;5.52;67.44;100229.50;5058172;28;45297;-75
2022/12/05 06:56:43;;;;;;;;;5.50;5.50;;;;;5.52;67.58;100228.63;5058741;28;45401;-76
2022/12/05 06:59:09;;;;;;;;;6.00;5.50;;;;;5.53;67.64;100225.19;5058691;28;45449;-68
2022/12/05 07:01:37;;;;;;;;;9.50;7.75;;;;;5.59;67.43;100225.50;5058221;28;46040;-75
2022/12/05 07:04:12;;;;;;;;;15.25;15.00;;;;;5.63;67.13;100232.59;5058284;28;45342;-68
2022/12/05 07:06:39;;;;;;;;;11.00;10.00;;;;;5.59;68.02;100225.50;5058225;28;45441;-67
2022/12/05 07:09:05;;;;;;;;;2.00;2.00;;;;;5.62;67.38;100230.81;5058491;28;45508;-67
2022/12/05 07:11:31;;;;;;;;;8.50;7.50;;;;;5.64;67.57;100234.34;5057991;28;46020;-67
2022/12/05 07:13:57;;;;;;;;;9.25;7.25;;;;;5.67;67.59;100231.91;5057783;28;45490;-68
2022/12/05 07:16:23;;;;;;;;;11.50;10.50;;;;;5.74;67.79;100239.13;5057949;28;45534;-68
2022/12/05 07:18:49;;;;;;;;;10.75;10.00;;;;;5.73;67.65;100221.81;5058278;28;45397;-67
2022/12/05 07:21:15;;;;;;;;;10.25;8.25;;;;;5.87;67.25;100244.84;5058215;28;45434;-67
2022/12/05 07:23:44;;;;;;;;;8.25;7.00;;;;;5.94;66.85;100237.41;5057914;28;45209;-68
2022/12/05 07:26:14;;;;;;;;;5.00;3.50;;;;;6.01;66.91;100242.88;5057921;28;45492;-67
2022/12/05 07:28:39;;;;;;;;;5.25;5.25;;;;;6.02;66.99;100230.00;5055259;28;45346;-68
2022/12/05 07:31:12;;;;;;;;;3.00;3.00;;;;;6.11;66.78;100242.47;5057547;28;45445;-70
2022/12/05 07:33:38;;;;;;;;;7.50;6.75;;;;;6.06;66.72;100218.06;5057573;28;45349;-66
2022/12/05 07:36:07;;;;;;;;;8.50;7.00;;;;;6.22;66.63;100227.38;5056642;28;45489;-67
2022/12/05 07:38:33;;;;;;;;;9.50;6.00;;;;;6.10;66.62;100213.03;5057841;28;45459;-67
2022/12/05 07:41:03;;;;;;;;;19.00;18.00;;;;;6.29;66.63;100234.59;5057415;28;45964;-67
2022/12/05 07:43:29;;;;;;;;;18.25;17.00;;;;;6.30;66.50;100242.41;5057546;28;45532;-67
2022/12/05 07:45:55;;;;;;;;;26.00;24.25;;;;;6.32;66.38;100239.91;5057145;28;45323;-75
2022/12/05 07:48:20;;;;;;;;;30.00;25.25;;;;;6.25;66.30;100227.50;5057539;28;45373;-67
2022/12/05 07:50:46;;;;;;;;;26.00;24.00;;;;;6.39;66.32;100249.72;5057764;28;46154;-67
2022/12/05 07:53:12;;;;;;;;;6.00;1.75;;;;;6.40;66.37;100251.47;5057326;28;45482;-68
2022/12/05 07:55:38;;;;;;;;;10.00;10.00;;;;;6.45;66.26;100249.97;5057649;28;45390;-75
2022/12/05 07:58:03;;;;;;;;;7.00;6.50;;;;;6.50;66.02;100253.63;5057338;28;45278;-76
2022/12/05 08:00:29;;;;;;;;;6.00;5.75;;;;;6.50;66.22;100258.81;5055747;28;45512;-77
2022/12/05 08:02:54;;;;;;;;;7.00;6.25;;;;;6.41;66.38;100235.09;5057990;28;45507;-69
2022/12/05 08:05:21;;;;;;;;;11.50;8.25;;;;;6.56;66.35;100253.91;5058594;28;45243;-76
2022/12/05 08:07:47;;;;;;;;;15.25;11.50;;;;;6.66;65.88;100254.28;5054390;28;45544;-69
2022/12/05 08:10:12;;;;;;;;;11.50;8.00;;;;;6.75;65.77;100246.88;5054774;28;46157;-68
2022/12/05 08:12:38;;;;;;;;;2.75;2.00;;;;;6.82;65.79;100253.19;5056610;28;45449;-68
2022/12/05 08:15:05;;;;;;;;;8.00;7.75;;;;;6.85;65.68;100254.19;5057110;28;45427;-68
2022/12/05 08:17:31;;;;;;;;;8.00;8.00;;;;;6.87;65.68;100255.16;5057230;28;45571;-69
2022/12/05 08:19:56;;;;;;;;;11.00;8.50;;;;;6.90;66.16;100255.28;5056330;28;46065;-69
2022/12/05 08:22:22;;;;;;;;;15.00;13.00;;;;;6.96;66.00;100239.94;5056925;28;45485;-68
2022/12/05 08:24:50;;;;;;;;;17.00;15.50;;;;;7.03;65.97;100247.97;5056588;28;45369;-68
2022/12/05 08:27:16;;;;;;;;;17.00;13.75;;;;;7.06;65.60;100241.19;5056912;28;45353;-68
2022/12/05 08:29:42;;;;;;;;;13.00;11.50;;;;;7.16;65.62;100248.50;5056091;28;45768;-69
2022/12/05 08:32:07;;;;;;;;;17.50;13.75;;;;;7.26;65.66;100251.44;5056053;28;45479;-69
2022/12/05 08:34:33;;;;;;;;;18.50;16.25;;;;;7.34;65.44;100250.94;5054041;28;45896;-70
2022/12/05 08:36:58;;;;;;;;;12.25;12.25;;;;;7.43;65.22;100246.91;5056329;28;45381;-73
2022/12/05 08:39:25;;;;;;;;;8.75;8.00;;;;;7.52;65.15;100244.63;5056614;28;46162;-81
2022/12/05 08:41:50;;;;;;;;;7.50;7.00;;;;;7.45;65.20;100233.13;5056137;28;45443;-73
2022/12/05 08:44:17;;;;;;;;;15.50;14.25;;;;;7.60;65.02;100238.03;5055816;28;45773;-69
2022/12/05 08:46:44;;;;;;;;;16.25;11.75;;;;;7.69;64.86;100238.34;5053674;28;45496;-69
2022/12/05 08:49:11;;;;;;;;;12.50;11.50;;;;;7.75;64.96;100248.09;5056356;28;46083;-69
2022/12/05 08:51:36;;;;;;;;;12.50;10.75;;;;;7.80;64.92;100237.84;5056115;28;45851;-68
2022/12/05 08:54:03;;;;;;;;;27.25;23.50;;;;;7.85;65.15;100238.91;5055948;28;45548;-69
2022/12/05 08:56:31;;;;;;;;;18.25;17.00;;;;;7.90;65.64;100234.78;5056430;28;45463;-68
2022/12/05 08:58:57;;;;;;;;;22.50;20.25;;;;;7.95;65.44;100238.41;5055526;28;46221;-70
2022/12/05 09:01:24;;;;;;;;;9.50;8.50;;;;;8.02;65.17;100230.00;5056263;28;45368;-68
2022/12/05 09:03:50;;;;;;;;;12.00;9.75;;;;;7.89;65.10;100202.66;5054639;28;45582;-68
2022/12/05 09:06:22;;;;;;;;;9.50;9.00;;;;;8.15;65.21;100232.16;5050970;28;45443;-68
2022/12/05 09:08:52;;;;;;;;;14.50;12.75;;;;;8.22;64.71;100233.28;5053684;28;46262;-68
2022/12/05 09:11:22;;;;;;;;;3.25;3.25;;;;;8.29;64.37;100232.66;5056007;28;45548;-68
2022/12/05 09:13:49;;;;;;;;;5.75;5.25;;;;;8.23;64.53;100200.34;5054013;28;45431;-75
2022/12/05 09:16:17;;;;;;;;;4.75;4.75;;;;;9.38;63.93;100224.84;5055968;28;45581;-69
2022/12/05 09:18:44;;;;;;;;;7.00;6.75;;;;;10.66;60.69;100205.69;5055807;28;46345;-70
2022/12/05 09:21:15;;;;;;;;;10.00;9.00;;;;;11.68;58.10;100193.09;5056001;28;45436;-70
2022/12/05 09:23:41;;;;;;;;;7.00;6.50;;;;;12.34;56.75;100176.00;5056232;28;45621;-68
2022/12/05 09:26:10;;;;;;;;;7.00;7.00;;;;;13.28;55.31;100205.38;5056460;28;45457;-70
2022/12/05 09:28:37;;;;;;;;;3.25;3.00;;;;;13.76;51.92;100209.50;5055779;28;46278;-69
2022/12/05 09:31:11;;;;;;;;;8.00;7.00;;;;;14.02;52.21;100217.66;5055633;28;45382;-68
2022/12/05 09:33:37;;;;;;;;;25.50;24.50;;;;;13.93;51.93;100214.97;5055602;28;45680;-68
2022/12/05 09:36:05;;;;;;;;;27.00;22.00;;;;;14.21;52.75;100213.50;5053902;28;45563;-72
2022/12/05 09:38:31;;;;;;;;;12.67;11.00;;;;;14.22;51.18;100160.06;5035942;28;46478;-69
2022/12/05 09:44:40;;;;;;;;;6.00;5.00;;;;;14.76;48.77;100210.47;5054738;28;45364;-70
2022/12/05 09:47:31;;;;;;;;;3.67;3.67;;;;;14.83;49.42;100220.19;5056479;28;45496;-70
2022/12/05 09:50:12;;;;;;;;;24.25;22.00;;;;;14.82;46.85;100213.19;5055521;28;45849;-69
2022/12/05 09:52:42;;;;;;;;;9.00;8.00;;;;;14.97;47.25;100204.50;5055715;28;45350;-72
2022/12/05 09:55:17;;;;;;;;;3.00;2.00;;;;;14.98;47.38;100205.38;5056292;28;45802;-70
2022/12/05 09:58:31;;;;;;;;;3.00;2.00;;;;;15.01;47.06;100210.69;5055955;28;45441;-77
2022/12/05 10:01:14;;;;;;;;;4.00;3.33;;;;;15.18;47.99;100188.00;5059019;28;48351;-77
2022/12/05 10:03:57;;;;;;;;;4.67;3.67;;;;;15.36;46.00;100213.53;5058071;28;45353;-78
2022/12/05 10:06:59;;;;;;;;;5.00;3.67;;;;;15.14;45.18;100212.53;5058663;28;45655;-71
2022/12/05 10:09:48;;;;;;;;;9.67;8.67;;;;;15.11;45.07;100188.81;5053730;28;45630;-70
2022/12/05 10:12:47;;;;;;;;;8.33;7.33;;;;;15.39;45.56;100221.41;5059159;28;46068;-78
2022/12/05 10:15:22;;;;;;;;;5.00;5.00;;;;;15.53;45.17;100218.84;5059131;28;45347;-76
2022/12/05 10:18:23;;;;;;;;;4.00;3.00;;;;;15.62;44.49;100216.25;5058427;28;45607;-72
2022/12/05 10:20:56;;;;;;;;;2.00;2.00;;;;;15.76;44.49;100204.94;5034774;28;45569;-69
2022/12/05 10:23:38;;;;;;;;;4.00;3.67;;;;;15.89;44.09;100212.84;5058651;28;45587;-77
2022/12/05 10:26:06;;;;;;;;;4.00;4.00;;;;;15.96;44.39;100208.50;5057753;28;45443;-71
2022/12/05 10:29:00;;;;;;;;;2.00;2.00;;;;;16.08;44.88;100203.25;5055864;28;45399;-70
2022/12/05 10:31:32;;;;;;;;;5.67;5.67;;;;;16.18;43.97;100198.00;5058046;28;45516;-72
2022/12/05 10:34:31;;;;;;;;;5.00;5.00;;;;;16.26;44.56;100191.88;5056015;28;45392;-69
2022/12/05 10:37:12;;;;;;;;;4.33;3.67;;;;;16.37;45.09;100196.25;5053085;28;45524;-69
2022/12/05 10:39:39;;;;;;;;;2.33;2.00;;;;;16.34;44.26;100189.25;5056729;28;45300;-70
2022/12/05 10:42:06;;;;;;;;;3.67;3.00;;;;;16.36;45.07;100182.22;5058007;28;45487;-69
2022/12/05 10:44:33;;;;;;;;;5.00;4.00;;;;;16.27;45.64;100166.38;5056228;28;45543;-70
2022/12/05 10:47:00;;;;;;;;;4.67;4.00;;;;;16.52;44.69;100183.09;5052231;28;45488;-69
2022/12/05 10:49:26;;;;;;;;;2.00;2.00;;;;;16.48;44.98;100171.66;5048152;28;45490;-72
2022/12/05 10:51:52;;;;;;;;;3.00;2.33;;;;;16.29;45.38;100165.53;5054414;28;45495;-77
2022/12/05 10:54:24;;;;;;;;;3.67;3.67;;;;;16.30;44.48;100180.44;5056441;28;46197;-69
2022/12/05 10:56:52;;;;;;;;;1.00;1.00;;;;;16.18;43.81;100172.53;5058118;28;45426;-75
2022/12/05 10:59:22;;;;;;;;;4.00;4.00;;;;;16.00;44.09;100149.69;5057956;28;45420;-73
2022/12/05 11:01:54;;;;;;;;;5.00;4.00;;;;;16.16;45.25;100178.69;5058602;28;45409;-69
2022/12/05 11:04:24;;;;;;;;;3.00;3.00;;;;;16.25;45.04;100173.41;5058404;28;45360;-70
2022/12/05 11:07:00;;;;;;;;;2.00;1.00;;;;;16.19;44.98;100147.06;5054939;28;45381;-70
2022/12/05 11:09:35;;;;;;;;;4.00;4.00;;;;;16.34;45.74;100164.66;5056638;28;45491;-70
2022/12/05 11:12:00;;;;;;;;;3.33;3.33;;;;;16.45;45.96;100165.50;5058379;28;46131;-70
2022/12/05 11:14:32;;;;;;;;;3.00;3.00;;;;;16.51;45.35;100152.31;5058361;28;45777;-73
2022/12/05 11:16:59;;;;;;;;;4.33;4.00;;;;;16.63;45.17;100154.06;5058727;28;45495;-77
2022/12/05 11:19:30;;;;;;;;;11.33;10.67;;;;;16.63;44.62;100154.97;5059308;28;45373;-74
2022/12/05 11:21:56;;;;;;;;;9.00;8.33;;;;;16.46;44.68;100115.41;5060283;28;45568;-76
2022/12/05 11:24:32;;;;;;;;;10.00;9.00;;;;;16.63;45.22;100143.53;5059743;28;45591;-76
2022/12/05 11:27:21;;;;;;;;;9.00;8.33;;;;;16.56;44.60;100120.69;5058547;28;45356;-79
2022/12/05 11:29:57;;;;;;;;;11.00;9.00;;;;;16.62;44.65;100133.88;5055705;28;45287;-78
2022/12/05 11:32:26;;;;;;;;;9.00;8.33;;;;;16.58;45.14;100119.81;5059535;28;45465;-69
2022/12/05 11:35:07;;;;;;;;;10.00;10.00;;;;;16.53;45.68;100131.22;5059679;28;45583;-71
2022/12/05 11:37:57;;;;;;;;;11.67;10.00;;;;;16.51;45.20;100123.31;5059127;28;45452;-69
2022/12/05 11:40:44;;;;;;;;;10.67;9.33;;;;;16.36;46.32;100118.94;5057912;28;45480;-69
2022/12/05 11:43:28;;;;;;;;;12.00;11.67;;;;;16.26;46.54;100128.59;5058419;28;45468;-74
2022/12/05 11:46:24;;;;;;;;;12.67;11.67;;;;;16.25;46.28;100118.97;5057949;28;46095;-70
2022/12/05 11:49:18;;;;;;;;;33.00;31.00;;;;;16.38;46.54;100106.63;5037281;28;45480;-72
2022/12/05 11:52:11;;;;;;;;;10.00;10.00;;;;;16.43;46.29;100090.81;5037557;28;45481;-69